sensor_id;sensor_type;location;lat;lon;timestamp;temperature;humidity
9640;DHT22;51745;50.872;4.732;2023-03-14T00:00:36;11.20;99.90
9640;DHT22;51745;50.872;4.732;2023-03-14T00:03:28;11.20;99.90
9640;DHT22;51745;50.872;4.732;2023-03-14T00:06:18;11.20;99.90
9640;DHT22;51745;50.872;4.732;2023-03-14T00:09:08;11.20;99.90
9640;DHT22;51745;50.872;4.732;2023-03-14T00:11:56;11.10;99.90
9640;DHT22;51745;50.872;4.732;2023-03-14T00:14:50;11.20;99.90
9640;DHT22;51745;50.872;4.732;2023-03-14T00:17:38;11.10;99.90
9640;DHT22;51745;50.872;4.732;2023-03-14T00:20:26;11.40;99.90
9640;DHT22;51745;50.872;4.732;2023-03-14T00:23:13;11.20;99.90
9640;DHT22;51745;50.872;4.732;2023-03-14T00:26:04;10.50;99.90
9640;DHT22;51745;50.872;4.732;2023-03-14T00:28:52;11.00;99.90
9640;DHT22;51745;50.872;4.732;2023-03-14T00:31:40;11.00;99.90
9640;DHT22;51745;50.872;4.732;2023-03-14T00:34:28;11.00;99.90
9640;DHT22;51745;50.872;4.732;2023-03-14T00:37:18;10.90;99.90
9640;DHT22;51745;50.872;4.732;2023-03-14T00:40:08;10.90;99.90
9640;DHT22;51745;50.872;4.732;2023-03-14T00:42:57;11.70;99.90
9640;DHT22;51745;50.872;4.732;2023-03-14T00:45:45;10.80;99.90
9640;DHT22;51745;50.872;4.732;2023-03-14T00:48:33;10.70;99.90
9640;DHT22;51745;50.872;4.732;2023-03-14T00:51:21;10.70;99.90
9640;DHT22;51745;50.872;4.732;2023-03-14T00:54:11;10.70;99.90
9640;DHT22;51745;50.872;4.732;2023-03-14T00:56:59;10.70;99.90
9640;DHT22;51745;50.872;4.732;2023-03-14T00:59:51;10.60;99.90
9640;DHT22;51745;50.872;4.732;2023-03-14T01:02:41;10.70;99.90
9640;DHT22;51745;50.872;4.732;2023-03-14T01:05:29;12.50;99.90
9640;DHT22;51745;50.872;4.732;2023-03-14T01:08:17;10.80;99.90
9640;DHT22;51745;50.872;4.732;2023-03-14T01:11:07;11.50;99.90
9640;DHT22;51745;50.872;4.732;2023-03-14T01:13:55;10.70;99.90
9640;DHT22;51745;50.872;4.732;2023-03-14T01:16:48;10.70;99.90
9640;DHT22;51745;50.872;4.732;2023-03-14T01:19:38;11.80;99.90
9640;DHT22;51745;50.872;4.732;2023-03-14T01:22:26;11.70;99.90
9640;DHT22;51745;50.872;4.732;2023-03-14T01:25:15;11.60;99.90
9640;DHT22;51745;50.872;4.732;2023-03-14T01:28:04;10.70;99.90
9640;DHT22;51745;50.872;4.732;2023-03-14T01:30:53;12.30;99.90
9640;DHT22;51745;50.872;4.732;2023-03-14T01:33:43;8.90;99.90
9640;DHT22;51745;50.872;4.732;2023-03-14T01:36:31;11.40;99.90
9640;DHT22;51745;50.872;4.732;2023-03-14T01:39:20;10.70;99.90
9640;DHT22;51745;50.872;4.732;2023-03-14T01:42:08;10.60;99.90
9640;DHT22;51745;50.872;4.732;2023-03-14T01:44:56;10.40;99.90
9640;DHT22;51745;50.872;4.732;2023-03-14T01:47:44;10.40;99.90
9640;DHT22;51745;50.872;4.732;2023-03-14T01:50:35;10.20;99.90
9640;DHT22;51745;50.872;4.732;2023-03-14T01:53:22;10.10;99.90
9640;DHT22;51745;50.872;4.732;2023-03-14T01:56:11;9.90;99.90
9640;DHT22;51745;50.872;4.732;2023-03-14T01:59:02;10.30;99.90
9640;DHT22;51745;50.872;4.732;2023-03-14T02:01:51;9.90;99.90
9640;DHT22;51745;50.872;4.732;2023-03-14T02:04:44;11.30;99.90
9640;DHT22;51745;50.872;4.732;2023-03-14T02:07:39;10.00;99.90
9640;DHT22;51745;50.872;4.732;2023-03-14T02:10:38;10.10;99.90
9640;DHT22;51745;50.872;4.732;2023-03-14T02:13:27;12.80;99.90
9640;DHT22;51745;50.872;4.732;2023-03-14T02:16:22;10.10;99.90
9640;DHT22;51745;50.872;4.732;2023-03-14T02:19:24;12.10;99.90
9640;DHT22;51745;50.872;4.732;2023-03-14T02:22:25;10.50;99.90
9640;DHT22;51745;50.872;4.732;2023-03-14T02:25:20;9.30;99.90
9640;DHT22;51745;50.872;4.732;2023-03-14T02:28:12;10.70;99.90
9640;DHT22;51745;50.872;4.732;2023-03-14T02:31:00;9.00;99.90
9640;DHT22;51745;50.872;4.732;2023-03-14T02:33:51;8.00;99.90
9640;DHT22;51745;50.872;4.732;2023-03-14T02:36:40;8.90;99.90
9640;DHT22;51745;50.872;4.732;2023-03-14T02:39:31;8.90;99.90
9640;DHT22;51745;50.872;4.732;2023-03-14T02:42:21;8.80;99.90
9640;DHT22;51745;50.872;4.732;2023-03-14T02:48:19;8.80;99.90
9640;DHT22;51745;50.872;4.732;2023-03-14T02:51:08;9.00;99.90
9640;DHT22;51745;50.872;4.732;2023-03-14T02:54:02;10.60;99.90
9640;DHT22;51745;50.872;4.732;2023-03-14T02:56:50;8.80;99.90
9640;DHT22;51745;50.872;4.732;2023-03-14T02:59:40;8.80;99.90
9640;DHT22;51745;50.872;4.732;2023-03-14T03:02:33;8.80;99.90
9640;DHT22;51745;50.872;4.732;2023-03-14T03:05:23;8.70;99.90
9640;DHT22;51745;50.872;4.732;2023-03-14T03:08:12;8.80;99.90
9640;DHT22;51745;50.872;4.732;2023-03-14T03:11:00;8.80;99.90
9640;DHT22;51745;50.872;4.732;2023-03-14T03:13:50;8.90;99.90
9640;DHT22;51745;50.872;4.732;2023-03-14T03:16:39;9.10;99.90
9640;DHT22;51745;50.872;4.732;2023-03-14T03:19:27;9.00;99.90
9640;DHT22;51745;50.872;4.732;2023-03-14T03:22:16;8.80;99.90
9640;DHT22;51745;50.872;4.732;2023-03-14T03:25:06;8.90;99.90
9640;DHT22;51745;50.872;4.732;2023-03-14T03:27:54;10.10;99.90
9640;DHT22;51745;50.872;4.732;2023-03-14T03:30:42;9.00;99.90
9640;DHT22;51745;50.872;4.732;2023-03-14T03:33:31;9.00;99.90
9640;DHT22;51745;50.872;4.732;2023-03-14T03:36:22;9.00;99.90
9640;DHT22;51745;50.872;4.732;2023-03-14T03:39:11;9.00;99.90
9640;DHT22;51745;50.872;4.732;2023-03-14T03:41:59;9.00;99.90
9640;DHT22;51745;50.872;4.732;2023-03-14T03:44:49;9.00;99.90
9640;DHT22;51745;50.872;4.732;2023-03-14T03:47:37;9.00;99.90
9640;DHT22;51745;50.872;4.732;2023-03-14T03:50:26;9.10;99.90
9640;DHT22;51745;50.872;4.732;2023-03-14T03:53:14;9.10;99.90
9640;DHT22;51745;50.872;4.732;2023-03-14T03:56:19;9.10;99.90
9640;DHT22;51745;50.872;4.732;2023-03-14T03:59:08;9.10;99.90
9640;DHT22;51745;50.872;4.732;2023-03-14T04:01:56;9.40;99.90
9640;DHT22;51745;50.872;4.732;2023-03-14T04:04:44;9.10;99.90
9640;DHT22;51745;50.872;4.732;2023-03-14T04:07:32;9.10;99.90
9640;DHT22;51745;50.872;4.732;2023-03-14T04:10:20;9.20;99.90
9640;DHT22;51745;50.872;4.732;2023-03-14T04:13:39;9.10;99.90
9640;DHT22;51745;50.872;4.732;2023-03-14T04:16:27;9.00;99.90
9640;DHT22;51745;50.872;4.732;2023-03-14T04:19:27;9.10;99.90
9640;DHT22;51745;50.872;4.732;2023-03-14T04:22:15;9.20;99.90
9640;DHT22;51745;50.872;4.732;2023-03-14T04:25:09;9.00;99.90
9640;DHT22;51745;50.872;4.732;2023-03-14T04:28:02;9.10;99.90
9640;DHT22;51745;50.872;4.732;2023-03-14T04:30:53;9.10;99.90
9640;DHT22;51745;50.872;4.732;2023-03-14T04:33:43;9.10;99.90
9640;DHT22;51745;50.872;4.732;2023-03-14T04:36:33;9.00;99.90
9640;DHT22;51745;50.872;4.732;2023-03-14T04:39:27;10.60;99.90
9640;DHT22;51745;50.872;4.732;2023-03-14T04:42:26;9.20;99.90
9640;DHT22;51745;50.872;4.732;2023-03-14T04:45:14;9.20;99.90
9640;DHT22;51745;50.872;4.732;2023-03-14T04:48:04;9.30;99.90
9640;DHT22;51745;50.872;4.732;2023-03-14T04:50:52;9.20;99.90
9640;DHT22;51745;50.872;4.732;2023-03-14T04:53:40;9.30;99.90
9640;DHT22;51745;50.872;4.732;2023-03-14T04:56:30;9.20;99.90
9640;DHT22;51745;50.872;4.732;2023-03-14T04:59:19;9.20;99.90
9640;DHT22;51745;50.872;4.732;2023-03-14T05:02:09;9.80;99.90
9640;DHT22;51745;50.872;4.732;2023-03-14T05:05:14;9.30;99.90
9640;DHT22;51745;50.872;4.732;2023-03-14T05:08:37;9.20;99.90
9640;DHT22;51745;50.872;4.732;2023-03-14T05:11:52;9.30;99.90
9640;DHT22;51745;50.872;4.732;2023-03-14T05:14:56;9.20;99.90
9640;DHT22;51745;50.872;4.732;2023-03-14T05:18:06;9.30;99.90
9640;DHT22;51745;50.872;4.732;2023-03-14T05:21:28;9.30;99.90
9640;DHT22;51745;50.872;4.732;2023-03-14T05:24:38;9.30;99.90
9640;DHT22;51745;50.872;4.732;2023-03-14T05:27:45;9.30;99.90
9640;DHT22;51745;50.872;4.732;2023-03-14T05:30:52;9.30;99.90
9640;DHT22;51745;50.872;4.732;2023-03-14T05:33:50;9.30;99.90
9640;DHT22;51745;50.872;4.732;2023-03-14T05:37:18;9.30;99.90
9640;DHT22;51745;50.872;4.732;2023-03-14T05:40:28;9.30;99.90
9640;DHT22;51745;50.872;4.732;2023-03-14T05:43:25;9.40;99.90
9640;DHT22;51745;50.872;4.732;2023-03-14T05:46:32;9.30;99.90
9640;DHT22;51745;50.872;4.732;2023-03-14T05:49:55;9.40;99.90
9640;DHT22;51745;50.872;4.732;2023-03-14T05:53:03;9.40;99.90
9640;DHT22;51745;50.872;4.732;2023-03-14T05:56:10;9.40;99.90
9640;DHT22;51745;50.872;4.732;2023-03-14T05:59:23;9.50;99.90
9640;DHT22;51745;50.872;4.732;2023-03-14T06:02:36;9.60;99.90
9640;DHT22;51745;50.872;4.732;2023-03-14T06:05:34;9.40;99.90
9640;DHT22;51745;50.872;4.732;2023-03-14T06:08:23;9.40;99.90
9640;DHT22;51745;50.872;4.732;2023-03-14T06:11:11;9.30;99.90
9640;DHT22;51745;50.872;4.732;2023-03-14T06:13:59;9.30;99.90
9640;DHT22;51745;50.872;4.732;2023-03-14T06:16:48;9.30;99.90
9640;DHT22;51745;50.872;4.732;2023-03-14T06:19:38;9.30;99.90
9640;DHT22;51745;50.872;4.732;2023-03-14T06:22:28;9.30;99.90
9640;DHT22;51745;50.872;4.732;2023-03-14T06:25:20;9.30;99.90
9640;DHT22;51745;50.872;4.732;2023-03-14T06:28:09;9.30;99.90
9640;DHT22;51745;50.872;4.732;2023-03-14T06:30:58;9.20;99.90
9640;DHT22;51745;50.872;4.732;2023-03-14T06:33:52;10.20;99.90
9640;DHT22;51745;50.872;4.732;2023-03-14T06:36:41;9.30;99.90
9640;DHT22;51745;50.872;4.732;2023-03-14T06:39:29;9.40;99.90
9640;DHT22;51745;50.872;4.732;2023-03-14T06:42:25;9.40;99.90
9640;DHT22;51745;50.872;4.732;2023-03-14T06:45:13;9.50;99.90
9640;DHT22;51745;50.872;4.732;2023-03-14T06:48:04;9.50;99.90
9640;DHT22;51745;50.872;4.732;2023-03-14T06:51:05;9.50;99.90
9640;DHT22;51745;50.872;4.732;2023-03-14T06:53:55;9.40;99.90
9640;DHT22;51745;50.872;4.732;2023-03-14T06:59:35;9.50;99.90
9640;DHT22;51745;50.872;4.732;2023-03-14T07:02:25;9.40;99.90
9640;DHT22;51745;50.872;4.732;2023-03-14T07:05:37;9.40;99.90
9640;DHT22;51745;50.872;4.732;2023-03-14T07:08:26;9.50;99.90
9640;DHT22;51745;50.872;4.732;2023-03-14T07:11:14;11.30;99.90
9640;DHT22;51745;50.872;4.732;2023-03-14T07:14:03;9.40;99.90
9640;DHT22;51745;50.872;4.732;2023-03-14T07:16:53;8.90;99.90
9640;DHT22;51745;50.872;4.732;2023-03-14T07:19:41;9.70;99.90
9640;DHT22;51745;50.872;4.732;2023-03-14T07:22:29;7.90;99.90
9640;DHT22;51745;50.872;4.732;2023-03-14T07:25:23;7.80;99.90
9640;DHT22;51745;50.872;4.732;2023-03-14T07:28:19;6.50;99.90
9640;DHT22;51745;50.872;4.732;2023-03-14T07:31:09;7.20;99.90
9640;DHT22;51745;50.872;4.732;2023-03-14T07:34:13;7.00;99.90
9640;DHT22;51745;50.872;4.732;2023-03-14T07:37:15;7.00;99.90
9640;DHT22;51745;50.872;4.732;2023-03-14T07:40:04;7.50;99.90
9640;DHT22;51745;50.872;4.732;2023-03-14T07:42:57;6.90;99.90
9640;DHT22;51745;50.872;4.732;2023-03-14T07:45:50;6.90;99.90
9640;DHT22;51745;50.872;4.732;2023-03-14T07:49:03;7.90;99.90
9640;DHT22;51745;50.872;4.732;2023-03-14T07:51:55;5.10;99.90
9640;DHT22;51745;50.872;4.732;2023-03-14T07:54:46;6.40;99.90
9640;DHT22;51745;50.872;4.732;2023-03-14T07:57:33;6.60;99.90
9640;DHT22;51745;50.872;4.732;2023-03-14T08:00:21;9.40;99.90
9640;DHT22;51745;50.872;4.732;2023-03-14T08:03:09;6.60;99.90
9640;DHT22;51745;50.872;4.732;2023-03-14T08:05:59;6.70;99.90
9640;DHT22;51745;50.872;4.732;2023-03-14T08:08:55;6.60;99.90
9640;DHT22;51745;50.872;4.732;2023-03-14T08:11:43;6.70;99.90
9640;DHT22;51745;50.872;4.732;2023-03-14T08:14:30;6.70;99.90
9640;DHT22;51745;50.872;4.732;2023-03-14T08:17:21;7.90;99.90
9640;DHT22;51745;50.872;4.732;2023-03-14T08:20:09;6.70;99.90
9640;DHT22;51745;50.872;4.732;2023-03-14T08:22:59;6.80;99.90
9640;DHT22;51745;50.872;4.732;2023-03-14T08:25:50;6.80;99.90
9640;DHT22;51745;50.872;4.732;2023-03-14T08:28:38;6.90;99.90
9640;DHT22;51745;50.872;4.732;2023-03-14T08:31:26;7.10;99.90
9640;DHT22;51745;50.872;4.732;2023-03-14T08:34:15;7.20;99.90
9640;DHT22;51745;50.872;4.732;2023-03-14T08:37:02;7.10;99.90
9640;DHT22;51745;50.872;4.732;2023-03-14T08:40:01;9.30;99.90
9640;DHT22;51745;50.872;4.732;2023-03-14T08:42:54;9.40;99.90
9640;DHT22;51745;50.872;4.732;2023-03-14T08:45:42;8.90;99.90
9640;DHT22;51745;50.872;4.732;2023-03-14T08:48:29;6.80;99.90
9640;DHT22;51745;50.872;4.732;2023-03-14T08:51:17;6.80;99.90
9640;DHT22;51745;50.872;4.732;2023-03-14T08:54:04;6.70;99.90
9640;DHT22;51745;50.872;4.732;2023-03-14T08:56:52;9.00;99.90
9640;DHT22;51745;50.872;4.732;2023-03-14T08:59:41;6.70;99.90
9640;DHT22;51745;50.872;4.732;2023-03-14T09:02:30;6.60;99.90
9640;DHT22;51745;50.872;4.732;2023-03-14T09:05:20;8.20;99.90
9640;DHT22;51745;50.872;4.732;2023-03-14T09:08:08;6.10;99.90
9640;DHT22;51745;50.872;4.732;2023-03-14T09:10:55;6.80;99.90
9640;DHT22;51745;50.872;4.732;2023-03-14T09:13:43;7.00;99.90
9640;DHT22;51745;50.872;4.732;2023-03-14T09:16:32;6.70;99.90
9640;DHT22;51745;50.872;4.732;2023-03-14T09:19:20;6.70;99.90
9640;DHT22;51745;50.872;4.732;2023-03-14T09:22:08;6.90;99.90
9640;DHT22;51745;50.872;4.732;2023-03-14T09:24:57;6.90;99.90
9640;DHT22;51745;50.872;4.732;2023-03-14T09:27:45;6.80;99.90
9640;DHT22;51745;50.872;4.732;2023-03-14T09:30:34;6.80;99.90
9640;DHT22;51745;50.872;4.732;2023-03-14T09:33:23;9.60;99.90
9640;DHT22;51745;50.872;4.732;2023-03-14T09:36:12;7.50;99.90
9640;DHT22;51745;50.872;4.732;2023-03-14T09:39:04;6.80;99.90
9640;DHT22;51745;50.872;4.732;2023-03-14T09:41:52;6.90;99.90
9640;DHT22;51745;50.872;4.732;2023-03-14T09:44:44;6.70;99.90
9640;DHT22;51745;50.872;4.732;2023-03-14T09:47:35;6.70;99.90
9640;DHT22;51745;50.872;4.732;2023-03-14T09:50:33;6.60;99.90
9640;DHT22;51745;50.872;4.732;2023-03-14T09:53:24;6.50;99.90
9640;DHT22;51745;50.872;4.732;2023-03-14T09:56:14;6.50;99.90
9640;DHT22;51745;50.872;4.732;2023-03-14T09:59:04;6.90;99.90
9640;DHT22;51745;50.872;4.732;2023-03-14T10:01:53;6.40;99.90
9640;DHT22;51745;50.872;4.732;2023-03-14T10:04:41;6.50;99.90
9640;DHT22;51745;50.872;4.732;2023-03-14T10:07:32;6.30;99.90
9640;DHT22;51745;50.872;4.732;2023-03-14T10:10:20;6.20;99.90
9640;DHT22;51745;50.872;4.732;2023-03-14T10:13:12;6.50;99.90
9640;DHT22;51745;50.872;4.732;2023-03-14T10:16:01;7.00;99.90
9640;DHT22;51745;50.872;4.732;2023-03-14T10:18:50;6.50;99.90
9640;DHT22;51745;50.872;4.732;2023-03-14T10:21:38;6.70;99.90
9640;DHT22;51745;50.872;4.732;2023-03-14T10:24:28;6.40;99.90
9640;DHT22;51745;50.872;4.732;2023-03-14T10:27:17;6.40;99.90
9640;DHT22;51745;50.872;4.732;2023-03-14T10:30:06;6.20;99.90
9640;DHT22;51745;50.872;4.732;2023-03-14T10:32:59;6.10;99.90
9640;DHT22;51745;50.872;4.732;2023-03-14T10:35:56;6.10;99.90
9640;DHT22;51745;50.872;4.732;2023-03-14T10:38:45;6.00;99.90
9640;DHT22;51745;50.872;4.732;2023-03-14T10:41:35;5.90;99.90
9640;DHT22;51745;50.872;4.732;2023-03-14T10:44:24;7.30;99.90
9640;DHT22;51745;50.872;4.732;2023-03-14T10:47:15;5.90;99.90
9640;DHT22;51745;50.872;4.732;2023-03-14T10:53:20;5.70;99.90
9640;DHT22;51745;50.872;4.732;2023-03-14T10:56:11;5.80;99.90
9640;DHT22;51745;50.872;4.732;2023-03-14T10:59:03;5.80;99.90
9640;DHT22;51745;50.872;4.732;2023-03-14T11:01:55;5.90;99.90
9640;DHT22;51745;50.872;4.732;2023-03-14T11:04:49;5.90;99.90
9640;DHT22;51745;50.872;4.732;2023-03-14T11:07:42;5.60;99.90
9640;DHT22;51745;50.872;4.732;2023-03-14T11:10:32;5.70;99.90
9640;DHT22;51745;50.872;4.732;2023-03-14T11:13:21;8.30;99.90
9640;DHT22;51745;50.872;4.732;2023-03-14T11:16:16;5.70;99.90
9640;DHT22;51745;50.872;4.732;2023-03-14T11:19:13;5.50;99.90
9640;DHT22;51745;50.872;4.732;2023-03-14T11:22:05;5.70;99.90
9640;DHT22;51745;50.872;4.732;2023-03-14T11:25:00;5.30;99.90
9640;DHT22;51745;50.872;4.732;2023-03-14T11:27:54;6.60;99.90
9640;DHT22;51745;50.872;4.732;2023-03-14T11:30:50;7.70;99.90
9640;DHT22;51745;50.872;4.732;2023-03-14T11:33:44;5.00;99.90
9640;DHT22;51745;50.872;4.732;2023-03-14T11:36:36;5.10;99.90
9640;DHT22;51745;50.872;4.732;2023-03-14T11:39:25;5.10;99.90
9640;DHT22;51745;50.872;4.732;2023-03-14T11:42:14;5.30;99.90
9640;DHT22;51745;50.872;4.732;2023-03-14T11:45:03;5.40;99.90
9640;DHT22;51745;50.872;4.732;2023-03-14T11:48:05;5.60;99.90
9640;DHT22;51745;50.872;4.732;2023-03-14T11:50:57;5.70;99.90
9640;DHT22;51745;50.872;4.732;2023-03-14T11:53:50;5.70;99.90
9640;DHT22;51745;50.872;4.732;2023-03-14T11:56:43;5.90;99.90
9640;DHT22;51745;50.872;4.732;2023-03-14T11:59:39;8.00;99.90
9640;DHT22;51745;50.872;4.732;2023-03-14T12:02:33;8.10;99.90
9640;DHT22;51745;50.872;4.732;2023-03-14T12:08:46;6.50;99.90
9640;DHT22;51745;50.872;4.732;2023-03-14T12:11:36;6.60;99.90
9640;DHT22;51745;50.872;4.732;2023-03-14T12:14:29;6.60;99.90
9640;DHT22;51745;50.872;4.732;2023-03-14T12:17:21;6.60;99.90
9640;DHT22;51745;50.872;4.732;2023-03-14T12:20:15;6.70;99.90
9640;DHT22;51745;50.872;4.732;2023-03-14T12:23:05;6.80;99.90
9640;DHT22;51745;50.872;4.732;2023-03-14T12:26:08;6.60;99.90
9640;DHT22;51745;50.872;4.732;2023-03-14T12:29:13;6.50;99.90
9640;DHT22;51745;50.872;4.732;2023-03-14T12:38:25;7.10;99.90
9640;DHT22;51745;50.872;4.732;2023-03-14T12:41:19;6.00;99.90
9640;DHT22;51745;50.872;4.732;2023-03-14T12:50:37;5.20;99.90
9640;DHT22;51745;50.872;4.732;2023-03-14T12:53:42;5.10;99.90
9640;DHT22;51745;50.872;4.732;2023-03-14T12:56:42;5.10;99.90
9640;DHT22;51745;50.872;4.732;2023-03-14T12:59:36;4.80;99.90
9640;DHT22;51745;50.872;4.732;2023-03-14T13:02:28;4.70;99.90
9640;DHT22;51745;50.872;4.732;2023-03-14T13:05:18;4.60;99.90
9640;DHT22;51745;50.872;4.732;2023-03-14T13:08:09;4.80;99.90
9640;DHT22;51745;50.872;4.732;2023-03-14T13:10:57;4.90;99.90
9640;DHT22;51745;50.872;4.732;2023-03-14T13:13:47;5.00;99.90
9640;DHT22;51745;50.872;4.732;2023-03-14T13:16:35;5.20;99.90
9640;DHT22;51745;50.872;4.732;2023-03-14T13:19:35;5.10;99.90
9640;DHT22;51745;50.872;4.732;2023-03-14T13:22:33;5.50;99.90
9640;DHT22;51745;50.872;4.732;2023-03-14T13:25:29;5.90;99.90
9640;DHT22;51745;50.872;4.732;2023-03-14T13:28:18;7.40;99.90
9640;DHT22;51745;50.872;4.732;2023-03-14T13:31:12;5.80;99.90
9640;DHT22;51745;50.872;4.732;2023-03-14T13:34:09;5.80;99.90
9640;DHT22;51745;50.872;4.732;2023-03-14T13:36:58;5.60;99.90
9640;DHT22;51745;50.872;4.732;2023-03-14T13:39:48;5.30;99.90
9640;DHT22;51745;50.872;4.732;2023-03-14T13:42:36;5.20;99.90
9640;DHT22;51745;50.872;4.732;2023-03-14T13:45:25;5.00;99.90
9640;DHT22;51745;50.872;4.732;2023-03-14T13:48:19;4.50;99.90
9640;DHT22;51745;50.872;4.732;2023-03-14T13:51:09;4.20;99.90
9640;DHT22;51745;50.872;4.732;2023-03-14T13:53:57;3.90;99.90
9640;DHT22;51745;50.872;4.732;2023-03-14T13:56:45;3.80;99.90
9640;DHT22;51745;50.872;4.732;2023-03-14T13:59:34;3.80;99.90
9640;DHT22;51745;50.872;4.732;2023-03-14T14:02:22;3.90;99.90
9640;DHT22;51745;50.872;4.732;2023-03-14T14:05:15;4.10;99.90
9640;DHT22;51745;50.872;4.732;2023-03-14T14:08:02;4.20;99.90
9640;DHT22;51745;50.872;4.732;2023-03-14T14:10:52;4.50;99.90
9640;DHT22;51745;50.872;4.732;2023-03-14T14:13:42;4.70;99.90
9640;DHT22;51745;50.872;4.732;2023-03-14T14:16:30;5.10;99.90
9640;DHT22;51745;50.872;4.732;2023-03-14T14:19:18;5.40;99.90
9640;DHT22;51745;50.872;4.732;2023-03-14T14:22:09;5.50;99.90
9640;DHT22;51745;50.872;4.732;2023-03-14T14:24:57;5.80;99.90
9640;DHT22;51745;50.872;4.732;2023-03-14T14:27:46;5.70;99.90
9640;DHT22;51745;50.872;4.732;2023-03-14T14:30:35;5.90;99.90
9640;DHT22;51745;50.872;4.732;2023-03-14T14:33:23;5.90;99.90
9640;DHT22;51745;50.872;4.732;2023-03-14T14:36:14;6.00;99.90
9640;DHT22;51745;50.872;4.732;2023-03-14T14:39:17;6.00;99.90
9640;DHT22;51745;50.872;4.732;2023-03-14T14:42:12;6.40;99.90
9640;DHT22;51745;50.872;4.732;2023-03-14T14:45:02;6.30;99.90
9640;DHT22;51745;50.872;4.732;2023-03-14T14:47:51;6.30;99.90
9640;DHT22;51745;50.872;4.732;2023-03-14T14:50:48;6.30;99.90
9640;DHT22;51745;50.872;4.732;2023-03-14T14:53:42;8.80;99.90
9640;DHT22;51745;50.872;4.732;2023-03-14T14:56:34;6.50;99.90
9640;DHT22;51745;50.872;4.732;2023-03-14T14:59:24;6.30;99.90
9640;DHT22;51745;50.872;4.732;2023-03-14T15:02:23;5.90;99.90
9640;DHT22;51745;50.872;4.732;2023-03-14T15:05:12;6.20;99.90
9640;DHT22;51745;50.872;4.732;2023-03-14T15:08:07;4.40;99.90
9640;DHT22;51745;50.872;4.732;2023-03-14T15:10:57;5.50;99.90
9640;DHT22;51745;50.872;4.732;2023-03-14T15:13:49;5.00;99.90
9640;DHT22;51745;50.872;4.732;2023-03-14T15:16:38;4.60;99.90
9640;DHT22;51745;50.872;4.732;2023-03-14T15:19:26;5.10;99.90
9640;DHT22;51745;50.872;4.732;2023-03-14T15:22:18;4.50;99.90
9640;DHT22;51745;50.872;4.732;2023-03-14T15:25:10;6.50;99.90
9640;DHT22;51745;50.872;4.732;2023-03-14T15:28:19;4.60;99.90
9640;DHT22;51745;50.872;4.732;2023-03-14T15:31:14;6.00;99.90
9640;DHT22;51745;50.872;4.732;2023-03-14T15:34:04;4.70;99.90
9640;DHT22;51745;50.872;4.732;2023-03-14T15:36:53;4.90;99.90
9640;DHT22;51745;50.872;4.732;2023-03-14T15:39:41;4.40;99.90
9640;DHT22;51745;50.872;4.732;2023-03-14T15:42:29;5.00;99.90
9640;DHT22;51745;50.872;4.732;2023-03-14T15:45:18;5.00;99.90
9640;DHT22;51745;50.872;4.732;2023-03-14T15:48:15;5.30;99.90
9640;DHT22;51745;50.872;4.732;2023-03-14T15:51:06;5.60;99.90
9640;DHT22;51745;50.872;4.732;2023-03-14T15:53:54;5.60;99.90
9640;DHT22;51745;50.872;4.732;2023-03-14T15:56:43;2.80;99.90
9640;DHT22;51745;50.872;4.732;2023-03-14T15:59:31;5.10;99.90
9640;DHT22;51745;50.872;4.732;2023-03-14T16:02:18;5.40;99.90
9640;DHT22;51745;50.872;4.732;2023-03-14T16:05:10;5.20;99.90
9640;DHT22;51745;50.872;4.732;2023-03-14T16:07:58;5.10;99.90
9640;DHT22;51745;50.872;4.732;2023-03-14T16:10:50;5.80;99.90
9640;DHT22;51745;50.872;4.732;2023-03-14T16:13:41;5.80;99.90
9640;DHT22;51745;50.872;4.732;2023-03-14T16:16:29;5.30;99.90
9640;DHT22;51745;50.872;4.732;2023-03-14T16:19:19;6.50;99.90
9640;DHT22;51745;50.872;4.732;2023-03-14T16:22:08;5.00;99.90
9640;DHT22;51745;50.872;4.732;2023-03-14T16:24:57;5.00;99.90
9640;DHT22;51745;50.872;4.732;2023-03-14T16:27:48;5.10;99.90
9640;DHT22;51745;50.872;4.732;2023-03-14T16:30:59;7.80;99.90
9640;DHT22;51745;50.872;4.732;2023-03-14T16:33:49;5.40;99.90
9640;DHT22;51745;50.872;4.732;2023-03-14T16:36:38;5.20;99.90
9640;DHT22;51745;50.872;4.732;2023-03-14T16:39:33;5.60;99.90
9640;DHT22;51745;50.872;4.732;2023-03-14T16:42:41;5.40;99.90
9640;DHT22;51745;50.872;4.732;2023-03-14T16:45:49;6.80;99.90
9640;DHT22;51745;50.872;4.732;2023-03-14T16:48:37;6.60;99.90
9640;DHT22;51745;50.872;4.732;2023-03-14T16:51:25;7.70;99.90
9640;DHT22;51745;50.872;4.732;2023-03-14T16:54:13;6.00;99.90
9640;DHT22;51745;50.872;4.732;2023-03-14T16:57:05;5.40;99.90
9640;DHT22;51745;50.872;4.732;2023-03-14T16:59:53;5.30;99.90
9640;DHT22;51745;50.872;4.732;2023-03-14T17:02:41;5.30;99.90
9640;DHT22;51745;50.872;4.732;2023-03-14T17:05:29;5.20;99.90
9640;DHT22;51745;50.872;4.732;2023-03-14T17:08:19;5.30;99.90
9640;DHT22;51745;50.872;4.732;2023-03-14T17:11:07;5.20;99.90
9640;DHT22;51745;50.872;4.732;2023-03-14T17:13:57;5.70;99.90
9640;DHT22;51745;50.872;4.732;2023-03-14T17:16:46;8.00;99.90
9640;DHT22;51745;50.872;4.732;2023-03-14T17:19:33;5.60;99.90
9640;DHT22;51745;50.872;4.732;2023-03-14T17:22:22;5.20;99.90
9640;DHT22;51745;50.872;4.732;2023-03-14T17:25:16;5.20;99.90
9640;DHT22;51745;50.872;4.732;2023-03-14T17:28:05;5.30;99.90
9640;DHT22;51745;50.872;4.732;2023-03-14T17:31:01;5.50;99.90
9640;DHT22;51745;50.872;4.732;2023-03-14T17:33:52;5.30;99.90
9640;DHT22;51745;50.872;4.732;2023-03-14T17:36:40;7.30;99.90
9640;DHT22;51745;50.872;4.732;2023-03-14T17:39:28;5.40;99.90
9640;DHT22;51745;50.872;4.732;2023-03-14T17:42:15;5.50;99.90
9640;DHT22;51745;50.872;4.732;2023-03-14T17:45:05;5.10;99.90
9640;DHT22;51745;50.872;4.732;2023-03-14T17:47:56;5.10;99.90
9640;DHT22;51745;50.872;4.732;2023-03-14T17:50:43;5.00;99.90
9640;DHT22;51745;50.872;4.732;2023-03-14T17:53:34;4.90;99.90
9640;DHT22;51745;50.872;4.732;2023-03-14T17:56:23;4.90;99.90
9640;DHT22;51745;50.872;4.732;2023-03-14T17:59:11;4.90;99.90
9640;DHT22;51745;50.872;4.732;2023-03-14T18:02:00;7.00;99.90
9640;DHT22;51745;50.872;4.732;2023-03-14T18:04:50;4.90;99.90
9640;DHT22;51745;50.872;4.732;2023-03-14T18:07:39;6.30;99.90
9640;DHT22;51745;50.872;4.732;2023-03-14T18:10:27;4.90;99.90
9640;DHT22;51745;50.872;4.732;2023-03-14T18:13:16;3.80;99.90
9640;DHT22;51745;50.872;4.732;2023-03-14T18:16:12;4.80;99.90
9640;DHT22;51745;50.872;4.732;2023-03-14T18:19:01;4.90;99.90
9640;DHT22;51745;50.872;4.732;2023-03-14T18:21:50;4.80;99.90
9640;DHT22;51745;50.872;4.732;2023-03-14T18:24:42;5.10;99.90
9640;DHT22;51745;50.872;4.732;2023-03-14T18:27:31;5.20;99.90
9640;DHT22;51745;50.872;4.732;2023-03-14T18:30:21;4.50;99.90
9640;DHT22;51745;50.872;4.732;2023-03-14T18:33:09;4.50;99.90
9640;DHT22;51745;50.872;4.732;2023-03-14T18:35:58;4.20;99.90
9640;DHT22;51745;50.872;4.732;2023-03-14T18:38:48;4.10;99.90
9640;DHT22;51745;50.872;4.732;2023-03-14T18:41:42;4.00;99.90
9640;DHT22;51745;50.872;4.732;2023-03-14T18:44:31;3.90;99.90
9640;DHT22;51745;50.872;4.732;2023-03-14T18:47:20;4.00;99.90
9640;DHT22;51745;50.872;4.732;2023-03-14T18:50:11;3.70;99.90
9640;DHT22;51745;50.872;4.732;2023-03-14T18:52:59;3.60;99.90
9640;DHT22;51745;50.872;4.732;2023-03-14T18:55:51;3.50;99.90
9640;DHT22;51745;50.872;4.732;2023-03-14T18:58:40;3.50;99.90
9640;DHT22;51745;50.872;4.732;2023-03-14T19:01:28;3.60;99.90
9640;DHT22;51745;50.872;4.732;2023-03-14T19:04:16;3.70;99.90